Time;durP1;ratioP1;P1;durP2;ratioP2;P2;SDS_P1;SDS_P2;PMS_P1;PMS_P2;Temp;Humidity;BMP_temperature;BMP_pressure;BME280_temperature;BME280_humidity;BME280_pressure;Samples;Min_cycle;Max_cycle;Signal;HPM_P1;HPM_P2
2023/08/17 00:04:58;;;;;;;3.70;3.40;;;20.70;99.90;;;;;;10491135;28;20230;-82
2023/08/17 00:10:01;;;;;;;3.10;2.90;;;20.70;99.90;;;;;;10491781;28;20226;-82
2023/08/17 00:15:04;;;;;;;3.85;3.45;;;20.60;99.90;;;;;;10492739;28;20238;-82
2023/08/17 00:20:09;;;;;;;3.60;3.30;;;20.50;99.90;;;;;;10490616;28;20218;-81
2023/08/17 00:25:12;;;;;;;3.45;3.05;;;20.50;99.90;;;;;;10491869;28;20234;-82
2023/08/17 00:30:15;;;;;;;3.88;2.95;;;20.60;99.90;;;;;;10491648;28;20291;-82
2023/08/17 00:35:18;;;;;;;3.05;2.85;;;20.60;99.90;;;;;;10472794;28;20253;-82
2023/08/17 00:40:21;;;;;;;4.93;3.40;;;20.50;99.90;;;;;;10472991;28;20262;-82
2023/08/17 00:45:24;;;;;;;7.93;3.67;;;20.50;99.90;;;;;;10472627;28;20269;-82
2023/08/17 00:50:28;;;;;;;5.28;4.07;;;20.50;99.90;;;;;;10472053;28;20238;-82
2023/08/17 00:55:31;;;;;;;3.28;2.97;;;20.50;99.90;;;;;;10471822;28;20258;-82
2023/08/17 01:00:34;;;;;;;9.18;3.80;;;20.40;99.90;;;;;;10490771;28;20287;-82
2023/08/17 01:05:38;;;;;;;7.38;4.32;;;20.40;99.90;;;;;;10490567;28;20299;-81
2023/08/17 01:11:09;;;;;;;5.85;4.00;;;20.30;99.90;;;;;;10472070;28;20206;-82
2023/08/17 01:16:29;;;;;;;6.00;4.38;;;20.40;99.90;;;;;;10490815;28;20295;-82
2023/08/17 01:21:42;;;;;;;5.75;4.85;;;20.10;99.90;;;;;;10489658;28;20237;-82
2023/08/17 01:26:46;;;;;;;5.72;4.47;;;20.00;99.90;;;;;;10459757;28;20284;-82
2023/08/17 01:32:16;;;;;;;9.15;4.82;;;20.00;99.90;;;;;;10471485;28;20283;-82
2023/08/17 01:37:21;;;;;;;3.72;3.42;;;20.00;99.90;;;;;;10470523;28;20261;-82
2023/08/17 01:42:25;;;;;;;6.28;4.63;;;20.00;99.90;;;;;;10490626;28;20230;-82
2023/08/17 01:47:30;;;;;;;9.18;3.83;;;20.20;99.90;;;;;;10469754;28;20295;-82
2023/08/17 01:52:33;;;;;;;5.60;3.25;;;20.10;99.90;;;;;;10471281;28;20224;-81
2023/08/17 01:57:36;;;;;;;2.95;2.65;;;20.30;99.90;;;;;;10493651;28;20716;-82
2023/08/17 02:02:39;;;;;;;13.32;4.78;;;21.00;99.90;;;;;;10474741;28;20291;-82
2023/08/17 02:08:14;;;;;;;9.15;3.65;;;20.50;99.90;;;;;;10255907;28;20555;-89
2023/08/17 02:13:18;;;;;;;4.00;2.90;;;20.20;99.90;;;;;;10233798;29;20239;-88
2023/08/17 02:18:21;;;;;;;4.95;3.65;;;20.20;99.90;;;;;;10241923;29;20257;-88
2023/08/17 02:23:25;;;;;;;6.68;4.30;;;20.10;99.90;;;;;;10252194;28;20579;-88
2023/08/17 02:28:28;;;;;;;5.82;4.40;;;20.00;99.90;;;;;;10239867;29;20198;-89
2023/08/17 02:33:33;;;;;;;4.95;3.55;;;19.80;99.90;;;;;;10242619;29;20226;-89
2023/08/17 02:38:36;;;;;;;5.75;3.47;;;19.60;99.90;;;;;;10255160;28;20646;-89
2023/08/17 02:43:38;;;;;;;4.45;3.58;;;19.70;99.90;;;;;;10238818;28;20253;-89
2023/08/17 02:48:41;;;;;;;4.40;4.00;;;19.80;99.90;;;;;;10256220;29;20622;-88
2023/08/17 02:53:43;;;;;;;4.30;3.15;;;19.30;99.90;;;;;;10255717;29;20234;-88
2023/08/17 02:58:46;;;;;;;3.70;3.10;;;18.70;99.90;;;;;;10254334;29;20590;-89
2023/08/17 03:03:48;;;;;;;3.13;2.60;;;18.60;99.90;;;;;;10269203;28;20234;-89
2023/08/17 03:08:52;;;;;;;3.20;2.50;;;18.10;99.90;;;;;;10269160;28;20680;-89
2023/08/17 03:13:59;;;;;;;4.28;3.08;;;18.20;99.90;;;;;;10237726;29;20202;-89
2023/08/17 03:19:03;;;;;;;4.22;3.03;;;18.10;99.90;;;;;;10237443;29;20273;-89
2023/08/17 03:24:07;;;;;;;3.80;3.35;;;18.30;99.90;;;;;;10236810;28;20257;-88
2023/08/17 03:29:10;;;;;;;2.72;2.40;;;18.30;99.90;;;;;;10237153;29;20211;-88
2023/08/17 03:34:13;;;;;;;5.05;2.88;;;18.30;99.90;;;;;;10236566;29;20633;-88
2023/08/17 03:39:15;;;;;;;2.97;2.40;;;18.20;99.90;;;;;;10254401;29;20609;-89
2023/08/17 03:44:18;;;;;;;3.35;3.05;;;18.30;99.90;;;;;;10256141;28;20210;-89
2023/08/17 03:49:21;;;;;;;2.60;2.40;;;18.30;99.90;;;;;;10237350;28;20214;-89
2023/08/17 03:54:24;;;;;;;3.25;2.92;;;18.90;99.90;;;;;;10252366;29;20585;-89
2023/08/17 03:59:26;;;;;;;3.08;2.70;;;19.60;99.90;;;;;;10251809;29;20237;-89
2023/08/17 04:04:29;;;;;;;3.15;2.85;;;19.90;99.90;;;;;;10274352;28;20569;-89
2023/08/17 04:09:33;;;;;;;3.30;3.00;;;19.60;99.90;;;;;;10275053;28;20210;-89
2023/08/17 04:14:36;;;;;;;8.27;4.40;;;19.30;99.90;;;;;;10255032;28;20249;-89
2023/08/17 04:19:38;;;;;;;3.42;3.13;;;19.60;99.90;;;;;;10234918;29;20592;-89
2023/08/17 04:24:42;;;;;;;4.95;3.30;;;19.50;99.90;;;;;;10235394;29;20260;-88
2023/08/17 04:29:45;;;;;;;4.47;3.25;;;19.80;99.90;;;;;;10262133;28;20210;-88
2023/08/17 04:34:49;;;;;;;5.53;3.53;;;19.50;99.90;;;;;;10212326;29;20266;-87
2023/08/17 04:39:53;;;;;;;6.72;3.97;;;19.50;99.90;;;;;;10195298;29;20646;-88
2023/08/17 04:44:57;;;;;;;3.55;2.63;;;18.90;99.90;;;;;;10256553;28;20202;-87
2023/08/17 04:50:00;;;;;;;5.90;2.80;;;18.10;99.90;;;;;;10225507;29;20587;-87
2023/08/17 04:55:03;;;;;;;4.00;2.90;;;17.70;99.90;;;;;;10211321;29;20254;-87
2023/08/17 05:00:10;;;;;;;3.40;2.97;;;17.90;99.90;;;;;;10264090;28;20278;-87
2023/08/17 05:05:13;;;;;;;4.22;2.72;;;18.00;99.90;;;;;;10280773;28;20238;-90
2023/08/17 05:10:16;;;;;;;2.40;2.20;;;18.00;99.90;;;;;;10264857;28;20206;-89
2023/08/17 05:15:19;;;;;;;5.43;2.90;;;18.10;99.90;;;;;;10264837;28;20258;-87
2023/08/17 05:20:22;;;;;;;3.33;3.03;;;18.00;99.90;;;;;;10232773;29;20233;-87
2023/08/17 05:25:26;;;;;;;3.13;2.80;;;18.10;99.90;;;;;;10231824;28;20202;-85
2023/08/17 05:30:28;;;;;;;5.72;2.25;;;18.20;99.90;;;;;;10243896;28;20198;-88
2023/08/17 05:35:32;;;;;;;6.57;2.60;;;17.90;99.90;;;;;;10238630;29;20218;-88
2023/08/17 05:40:35;;;;;;;3.85;3.05;;;17.90;99.90;;;;;;10250964;29;20277;-88
2023/08/17 05:45:40;;;;;;;3.15;2.60;;;18.10;99.90;;;;;;10233668;29;20230;-89
2023/08/17 05:50:47;;;;;;;2.30;2.08;;;18.20;99.90;;;;;;10240655;28;20752;-87
2023/08/17 05:55:50;;;;;;;2.17;1.92;;;18.40;99.90;;;;;;10252683;29;20592;-87
2023/08/17 06:00:52;;;;;;;2.53;1.95;;;18.50;99.90;;;;;;10254951;28;20259;-88
2023/08/17 06:05:55;;;;;;;2.17;1.98;;;18.40;99.90;;;;;;10254915;29;20226;-87
2023/08/17 06:11:16;;;;;;;2.60;2.40;;;18.30;99.90;;;;;;10255837;28;20257;-87
2023/08/17 06:16:36;;;;;;;2.47;1.92;;;18.10;99.90;;;;;;10253623;29;20214;-87
2023/08/17 06:21:39;;;;;;;3.10;2.33;;;18.10;99.90;;;;;;10276321;28;20202;-88
2023/08/17 06:26:42;;;;;;;3.72;2.40;;;18.30;99.90;;;;;;10296007;28;20201;-87
2023/08/17 06:31:44;;;;;;;2.70;2.25;;;18.20;99.90;;;;;;10273694;28;20198;-88
2023/08/17 06:36:58;;;;;;;3.47;2.55;;;18.50;99.90;;;;;;10262406;28;20284;-88
2023/08/17 06:42:01;;;;;;;1.80;1.70;;;18.60;99.90;;;;;;10269466;28;20226;-87
2023/08/17 06:47:03;;;;;;;2.13;1.83;;;18.70;99.90;;;;;;10278558;28;20210;-88
2023/08/17 06:52:06;;;;;;;2.67;2.05;;;18.60;99.90;;;;;;10255027;29;20268;-87
2023/08/17 06:57:08;;;;;;;3.38;2.55;;;18.50;99.90;;;;;;10262681;28;20230;-88
2023/08/17 07:02:11;;;;;;;2.80;2.00;;;18.50;99.90;;;;;;10292745;28;20206;-88
2023/08/17 07:07:14;;;;;;;4.68;2.65;;;18.50;99.90;;;;;;10250490;28;20258;-88
2023/08/17 07:12:16;;;;;;;2.40;1.58;;;18.40;99.90;;;;;;10267936;28;20206;-88
2023/08/17 07:17:19;;;;;;;1.65;1.55;;;18.40;99.90;;;;;;10254622;29;20646;-88
2023/08/17 07:22:22;;;;;;;4.38;2.35;;;18.20;99.90;;;;;;10280224;28;20218;-87
2023/08/17 07:27:25;;;;;;;2.75;1.90;;;18.50;99.90;;;;;;10294471;28;20201;-87
2023/08/17 07:32:28;;;;;;;3.53;2.35;;;18.60;99.90;;;;;;10293473;28;20256;-87
2023/08/17 07:37:33;;;;;;;3.03;2.42;;;18.70;99.90;;;;;;10268844;28;20307;-88
2023/08/17 07:42:37;;;;;;;3.70;2.10;;;18.20;99.90;;;;;;10251817;29;20218;-88
2023/08/17 07:47:39;;;;;;;3.22;2.25;;;18.00;99.90;;;;;;10253768;29;20258;-89
2023/08/17 07:52:42;;;;;;;3.03;2.05;;;18.40;99.90;;;;;;10234973;28;20593;-90
2023/08/17 07:57:44;;;;;;;3.92;1.90;;;18.70;99.90;;;;;;10253173;29;20218;-91
2023/08/17 08:02:47;;;;;;;1.90;1.73;;;19.20;99.90;;;;;;10285890;28;20607;-91
2023/08/17 08:07:50;;;;;;;5.47;1.92;;;19.10;99.90;;;;;;10291769;28;20233;-88
2023/08/17 08:12:53;;;;;;;9.18;3.05;;;19.10;99.90;;;;;;10272703;28;20562;-90
2023/08/17 08:25:03;;;;;;;2.33;1.70;;;19.30;99.90;;;;;;10399604;28;20252;-83
2023/08/17 08:30:07;;;;;;;2.53;2.20;;;19.40;99.90;;;;;;10403252;28;20243;-84
2023/08/17 08:35:09;;;;;;;4.22;2.42;;;19.70;99.90;;;;;;10405542;28;20309;-83
2023/08/17 08:40:15;;;;;;;2.05;1.85;;;19.80;99.90;;;;;;10402337;28;20263;-83
2023/08/17 08:45:18;;;;;;;1.95;1.77;;;19.90;99.90;;;;;;10407180;28;20261;-84
2023/08/17 08:50:22;;;;;;;4.82;3.08;;;20.20;99.90;;;;;;10405679;28;20247;-84
2023/08/17 08:55:29;;;;;;;3.15;2.47;;;20.30;99.90;;;;;;10406459;28;20238;-83
2023/08/17 09:00:33;;;;;;;1.98;1.83;;;20.60;99.90;;;;;;10405879;28;20705;-84
2023/08/17 09:05:37;;;;;;;2.25;1.83;;;20.90;99.90;;;;;;10405595;28;20405;-83
2023/08/17 09:10:40;;;;;;;2.35;1.77;;;21.00;99.90;;;;;;10403185;28;20663;-83
2023/08/17 09:15:42;;;;;;;2.22;2.08;;;21.30;99.90;;;;;;10406760;28;20239;-83
2023/08/17 09:20:47;;;;;;;7.45;2.58;;;21.40;99.90;;;;;;10406266;28;20271;-84
2023/08/17 09:25:57;;;;;;;4.57;3.55;;;21.60;99.90;;;;;;10382303;28;20232;-84
2023/08/17 09:31:05;;;;;;;2.97;2.50;;;21.80;99.90;;;;;;10420016;28;20253;-83
2023/08/17 09:36:11;;;;;;;4.68;3.88;;;21.90;99.90;;;;;;10405884;28;20270;-82
2023/08/17 09:41:13;;;;;;;5.10;3.30;;;22.10;99.90;;;;;;10405217;28;20324;-82
2023/08/17 09:46:16;;;;;;;1.70;1.60;;;22.30;99.90;;;;;;10403700;28;20270;-82
2023/08/17 09:51:20;;;;;;;3.55;3.20;;;22.50;99.90;;;;;;10404341;28;20631;-82
2023/08/17 09:56:24;;;;;;;6.90;3.63;;;22.60;99.90;;;;;;10404235;28;20239;-82
2023/08/17 10:01:30;;;;;;;2.90;2.60;;;22.70;99.90;;;;;;10405804;28;20256;-82
2023/08/17 10:06:36;;;;;;;5.32;4.82;;;22.90;99.90;;;;;;10401398;28;20235;-82
2023/08/17 10:11:40;;;;;;;9.95;5.07;;;22.90;99.90;;;;;;10404977;28;20265;-82
2023/08/17 10:16:53;;;;;;;2.13;1.92;;;22.80;99.90;;;;;;10407185;28;20644;-82
2023/08/17 10:22:10;;;;;;;6.40;4.95;;;22.80;99.90;;;;;;10395734;28;20265;-83
2023/08/17 10:27:13;;;;;;;6.60;4.65;;;22.90;99.90;;;;;;10411919;28;20294;-83
2023/08/17 10:32:16;;;;;;;8.35;5.10;;;22.70;99.90;;;;;;10412875;28;20235;-82
2023/08/17 10:37:20;;;;;;;8.80;6.65;;;22.60;99.90;;;;;;10411200;28;20251;-82
2023/08/17 10:42:33;;;;;;;8.07;4.35;;;22.70;99.90;;;;;;10411710;28;20235;-82
2023/08/17 10:47:36;;;;;;;5.03;4.30;;;22.70;99.90;;;;;;10411959;28;20239;-82
2023/08/17 10:52:38;;;;;;;5.20;4.70;;;22.80;99.90;;;;;;10411920;28;20779;-83
2023/08/17 10:57:42;;;;;;;5.20;3.05;;;22.90;99.90;;;;;;10412462;28;20247;-82
2023/08/17 11:02:52;;;;;;;2.10;1.65;;;23.00;99.90;;;;;;10409599;28;20648;-82
2023/08/17 11:07:55;;;;;;;5.30;3.70;;;23.00;99.90;;;;;;10426839;28;20701;-82
2023/08/17 11:13:02;;;;;;;6.78;5.20;;;23.20;99.90;;;;;;10410227;28;20285;-83
2023/08/17 11:18:07;;;;;;;9.25;5.78;;;23.30;99.90;;;;;;10410579;28;20665;-83
2023/08/17 11:23:11;;;;;;;9.45;5.90;;;23.30;99.90;;;;;;10408589;28;20266;-83
2023/08/17 11:28:15;;;;;;;6.18;5.25;;;23.30;99.90;;;;;;10410154;28;20629;-83
2023/08/17 11:33:17;;;;;;;9.48;7.43;;;23.30;99.90;;;;;;10408482;28;20682;-83
2023/08/17 11:38:20;;;;;;;8.30;7.47;;;23.30;99.90;;;;;;10410865;28;20281;-83
2023/08/17 11:43:22;;;;;;;11.40;7.75;;;23.40;99.90;;;;;;10410196;28;20231;-84
2023/08/17 11:48:25;;;;;;;7.95;6.80;;;23.40;99.90;;;;;;10410086;28;20285;-83
2023/08/17 11:53:35;;;;;;;7.78;7.00;;;23.50;99.90;;;;;;10407831;28;20297;-83
2023/08/17 11:58:46;;;;;;;9.45;8.02;;;23.50;99.90;;;;;;10406792;28;20263;-83
2023/08/17 12:03:49;;;;;;;10.38;8.93;;;23.50;99.90;;;;;;10407960;28;20293;-84
2023/08/17 12:08:53;;;;;;;8.18;7.38;;;23.60;99.90;;;;;;10404885;28;20261;-85
2023/08/17 12:13:56;;;;;;;11.50;8.85;;;23.70;99.90;;;;;;10406296;28;20235;-84
2023/08/17 12:18:58;;;;;;;11.23;8.40;;;23.70;99.90;;;;;;10421687;28;20716;-83
2023/08/17 12:24:24;;;;;;;7.88;7.10;;;23.90;99.90;;;;;;10394627;28;20299;-84
2023/08/17 12:29:27;;;;;;;11.15;9.18;;;24.00;99.90;;;;;;10393497;28;20688;-82
2023/08/17 12:34:30;;;;;;;10.10;8.48;;;24.20;99.90;;;;;;10407781;28;20284;-83
2023/08/17 12:39:33;;;;;;;13.13;9.43;;;24.20;99.90;;;;;;10406732;28;20657;-83
2023/08/17 12:44:36;;;;;;;12.55;8.75;;;24.40;99.90;;;;;;10407693;28;20227;-83
2023/08/17 12:49:38;;;;;;;6.85;6.15;;;24.50;99.90;;;;;;10408695;28;20281;-81
2023/08/17 12:54:41;;;;;;;13.65;7.70;;;24.60;99.90;;;;;;10407173;28;20235;-83
2023/08/17 12:59:44;;;;;;;10.13;6.72;;;24.70;99.90;;;;;;10407026;28;20270;-84
2023/08/17 13:04:46;;;;;;;12.68;9.30;;;24.90;99.90;;;;;;10405598;28;20280;-82
2023/08/17 13:09:49;;;;;;;10.10;9.15;;;24.90;99.90;;;;;;10408666;28;20281;-85
2023/08/17 13:14:51;;;;;;;12.02;9.48;;;25.00;99.90;;;;;;10409387;28;20266;-85
2023/08/17 13:19:54;;;;;;;10.02;7.80;;;25.20;99.90;;;;;;10411534;28;20212;-85
2023/08/17 13:24:57;;;;;;;13.55;9.45;;;25.20;99.90;;;;;;10363095;22;20255;-87
2023/08/17 13:30:01;;;;;;;7.28;6.55;;;25.30;99.90;;;;;;10267690;28;20197;-88
2023/08/17 13:35:04;;;;;;;10.18;7.25;;;25.40;99.90;;;;;;10278595;28;20238;-88
2023/08/17 13:40:07;;;;;;;10.23;9.20;;;25.50;99.90;;;;;;10278548;28;20249;-88
2023/08/17 13:45:10;;;;;;;7.93;6.93;;;25.50;99.90;;;;;;10278523;28;20290;-89
2023/08/17 13:50:12;;;;;;;8.63;6.90;;;25.50;99.90;;;;;;10281025;28;20263;-88
2023/08/17 13:55:15;;;;;;;12.95;9.10;;;25.60;99.80;;;;;;10271089;28;20245;-89
2023/08/17 14:00:18;;;;;;;10.40;8.73;;;25.70;99.50;;;;;;10285779;28;20287;-89
2023/08/17 14:05:20;;;;;;;9.98;8.57;;;25.70;98.70;;;;;;10284421;28;20237;-89
2023/08/17 14:10:23;;;;;;;10.32;9.18;;;25.80;99.90;;;;;;10285837;28;20238;-88
2023/08/17 14:15:40;;;;;;;10.30;8.50;;;25.80;99.90;;;;;;10285368;28;20294;-89
2023/08/17 14:20:44;;;;;;;11.68;8.60;;;25.80;99.90;;;;;;10304021;28;20257;-89
2023/08/17 14:25:46;;;;;;;10.90;7.55;;;25.90;99.40;;;;;;10284484;28;20261;-90
2023/08/17 14:30:49;;;;;;;11.77;8.93;;;25.90;99.70;;;;;;10284368;28;20290;-89
2023/08/17 14:35:54;;;;;;;10.88;8.90;;;25.90;99.90;;;;;;10283613;28;20311;-89
2023/08/17 14:40:57;;;;;;;8.95;7.35;;;26.00;99.90;;;;;;10285808;28;20788;-88
2023/08/17 14:46:00;;;;;;;6.18;5.57;;;26.00;99.90;;;;;;10283383;28;20750;-88
2023/08/17 14:51:03;;;;;;;9.93;7.32;;;25.90;97.30;;;;;;10286446;28;20648;-88
2023/08/17 14:56:05;;;;;;;8.07;6.70;;;26.00;98.30;;;;;;10282866;28;20241;-88
2023/08/17 15:01:08;;;;;;;5.50;4.97;;;25.90;98.40;;;;;;10283036;28;20665;-88
2023/08/17 15:06:11;;;;;;;7.97;6.22;;;25.90;99.40;;;;;;10284205;28;20233;-88
2023/08/17 15:11:30;;;;;;;7.75;6.90;;;25.90;99.50;;;;;;10284847;28;20233;-88
2023/08/17 15:16:32;;;;;;;12.02;9.18;;;;;;;;;;10300231;28;20684;-88
2023/08/17 15:21:35;;;;;;;10.23;8.93;;;25.80;99.30;;;;;;10405392;28;20314;-88
2023/08/17 15:26:38;;;;;;;11.15;9.98;;;25.80;99.90;;;;;;10281782;28;20820;-88
2023/08/17 15:31:40;;;;;;;12.55;8.70;;;25.70;99.90;;;;;;10284043;28;20681;-88
2023/08/17 15:36:43;;;;;;;9.65;8.43;;;25.50;99.90;;;;;;10283469;28;20229;-88
2023/08/17 15:41:45;;;;;;;13.02;9.15;;;25.40;99.90;;;;;;10283124;28;20269;-88
2023/08/17 15:46:48;;;;;;;9.57;8.73;;;25.30;99.90;;;;;;10282364;28;20245;-88
2023/08/17 15:51:50;;;;;;;9.38;7.53;;;25.30;99.90;;;;;;10283707;28;20306;-88
2023/08/17 15:56:53;;;;;;;10.93;8.93;;;25.40;99.90;;;;;;10281565;28;20291;-88
2023/08/17 16:01:55;;;;;;;11.50;8.93;;;25.40;99.90;;;;;;10282280;28;20314;-88
2023/08/17 16:06:58;;;;;;;15.13;9.95;;;25.40;99.90;;;;;;10283475;28;20255;-88
2023/08/17 16:12:01;;;;;;;9.90;8.48;;;25.30;99.90;;;;;;10282400;28;20237;-88
2023/08/17 16:17:03;;;;;;;10.43;8.25;;;25.20;99.90;;;;;;10315237;28;20708;-88
2023/08/17 16:22:06;;;;;;;8.30;7.43;;;25.10;99.90;;;;;;10362409;28;20373;-88
2023/08/17 16:27:08;;;;;;;9.68;8.60;;;25.10;99.90;;;;;;10279144;28;20330;-88
2023/08/17 16:32:11;;;;;;;17.00;9.50;;;25.10;99.90;;;;;;10282418;28;20241;-88
2023/08/17 16:37:14;;;;;;;6.20;5.70;;;25.00;99.90;;;;;;10284009;28;20245;-88
2023/08/17 16:42:18;;;;;;;9.00;8.10;;;25.00;99.90;;;;;;10281479;28;20258;-88
2023/08/17 16:47:21;;;;;;;8.23;6.80;;;25.00;99.90;;;;;;10280850;28;20230;-85
2023/08/17 16:52:24;;;;;;;9.63;8.32;;;25.10;99.90;;;;;;10280302;28;20244;-86
2023/08/17 16:57:26;;;;;;;8.40;6.95;;;25.20;99.90;;;;;;10276860;28;20232;-85
2023/08/17 17:02:29;;;;;;;9.60;8.63;;;25.20;99.90;;;;;;10277015;28;20310;-88
2023/08/17 17:07:32;;;;;;;12.57;9.40;;;25.30;99.90;;;;;;10279156;28;20213;-87
2023/08/17 17:12:34;;;;;;;11.05;9.93;;;25.20;99.90;;;;;;10263490;28;20675;-88
2023/08/17 17:17:38;;;;;;;10.70;9.30;;;25.10;99.90;;;;;;10280626;28;20245;-86
2023/08/17 17:22:40;;;;;;;12.05;9.38;;;25.00;99.90;;;;;;10280010;28;20260;-86
2023/08/17 17:27:43;;;;;;;11.18;8.13;;;24.80;99.90;;;;;;10279248;28;20297;-86
2023/08/17 17:32:45;;;;;;;12.65;10.32;;;24.60;99.90;;;;;;10279513;28;20240;-87
2023/08/17 17:37:48;;;;;;;14.60;9.25;;;24.40;99.90;;;;;;10280715;28;20248;-86
2023/08/17 17:42:50;;;;;;;14.30;8.73;;;24.20;99.90;;;;;;10280758;28;20257;-86
2023/08/17 17:47:53;;;;;;;11.43;8.77;;;24.00;99.90;;;;;;10282325;28;20197;-89
2023/08/17 17:52:58;;;;;;;9.48;8.52;;;23.80;99.90;;;;;;10279503;28;20249;-88
2023/08/17 17:58:01;;;;;;;10.25;8.52;;;23.50;99.90;;;;;;10278480;28;20245;-88
2023/08/17 18:03:13;;;;;;;12.55;8.68;;;23.40;99.90;;;;;;10278255;28;20310;-88
2023/08/17 18:08:16;;;;;;;9.45;8.50;;;23.20;99.90;;;;;;10279442;28;20679;-88
2023/08/17 18:13:18;;;;;;;11.82;9.18;;;23.20;99.90;;;;;;10277872;28;20639;-86
2023/08/17 18:18:21;;;;;;;9.80;8.30;;;23.00;99.90;;;;;;10279963;28;20484;-87
2023/08/17 18:23:25;;;;;;;11.43;7.93;;;22.80;99.90;;;;;;10275160;28;21038;-90
2023/08/17 18:28:27;;;;;;;8.82;8.10;;;22.70;99.90;;;;;;10279351;28;20626;-92
2023/08/17 18:33:30;;;;;;;9.88;7.82;;;22.60;99.90;;;;;;10281911;28;20232;-91
2023/08/17 18:38:33;;;;;;;10.32;8.25;;;22.50;99.90;;;;;;10281623;28;20263;-90
2023/08/17 18:43:41;;;;;;;9.82;8.80;;;22.40;99.90;;;;;;10286202;28;20722;-91
2023/08/17 18:48:46;;;;;;;8.98;7.57;;;22.40;99.90;;;;;;10282877;28;20233;-90
2023/08/17 18:53:49;;;;;;;7.72;7.03;;;22.30;99.90;;;;;;10285568;28;20688;-91
2023/08/17 18:58:51;;;;;;;12.57;7.35;;;22.20;99.90;;;;;;10283120;28;20245;-90
2023/08/17 19:03:54;;;;;;;12.82;7.90;;;22.10;99.90;;;;;;10283803;28;20319;-90
2023/08/17 19:08:57;;;;;;;9.45;7.80;;;22.10;99.90;;;;;;10277645;28;20242;-90
2023/08/17 19:14:01;;;;;;;8.30;7.50;;;22.00;99.90;;;;;;10281991;28;20273;-90
2023/08/17 19:19:04;;;;;;;10.02;6.80;;;21.90;99.90;;;;;;10310462;28;20654;-90
2023/08/17 19:24:07;;;;;;;8.15;7.20;;;21.90;99.90;;;;;;10270883;28;20666;-90
2023/08/17 19:29:09;;;;;;;7.20;6.47;;;21.90;99.90;;;;;;10275770;28;20222;-92
2023/08/17 19:34:12;;;;;;;6.93;6.18;;;21.70;99.90;;;;;;10279557;28;20241;-90
2023/08/17 19:39:14;;;;;;;8.35;6.57;;;21.70;99.90;;;;;;10274591;28;20233;-91
2023/08/17 19:44:17;;;;;;;7.50;6.80;;;21.50;99.90;;;;;;10289862;28;20314;-91
2023/08/17 19:49:20;;;;;;;6.65;5.93;;;21.40;99.90;;;;;;10286015;28;20233;-90
2023/08/17 19:54:22;;;;;;;6.85;5.82;;;21.30;99.90;;;;;;10312680;28;20676;-91
2023/08/17 19:59:25;;;;;;;6.70;6.10;;;21.20;99.90;;;;;;10270791;28;20252;-91
2023/08/17 20:04:28;;;;;;;7.82;7.07;;;21.20;99.90;;;;;;10284537;28;20294;-90
2023/08/17 20:09:30;;;;;;;6.85;6.15;;;21.10;99.90;;;;;;10271211;28;20713;-92
2023/08/17 20:14:35;;;;;;;7.70;6.72;;;21.00;99.90;;;;;;10275422;28;20275;-92
2023/08/17 20:19:39;;;;;;;7.93;7.13;;;21.00;99.90;;;;;;10281123;28;20610;-92
2023/08/17 20:24:43;;;;;;;7.25;6.53;;;20.90;99.90;;;;;;10262442;28;20326;-92
2023/08/17 20:29:45;;;;;;;7.75;6.95;;;20.70;99.90;;;;;;10280903;28;20616;-92
2023/08/17 20:34:48;;;;;;;7.25;6.60;;;20.60;99.90;;;;;;10282341;28;20696;-91
2023/08/17 20:39:52;;;;;;;7.43;6.68;;;20.60;99.90;;;;;;10284153;28;20245;-92
2023/08/17 20:44:54;;;;;;;6.60;5.55;;;20.50;99.90;;;;;;10281822;28;20229;-92
2023/08/17 20:49:58;;;;;;;7.38;6.38;;;20.50;99.90;;;;;;10258569;28;20627;-92
2023/08/17 20:55:02;;;;;;;7.68;5.35;;;20.40;99.90;;;;;;10253037;28;20255;-92
2023/08/17 21:00:07;;;;;;;6.57;5.90;;;20.40;99.90;;;;;;10258510;28;22144;-91
2023/08/17 21:05:10;;;;;;;7.88;6.65;;;20.40;99.90;;;;;;10276412;28;20246;-91
2023/08/17 21:10:12;;;;;;;6.50;5.90;;;20.30;99.90;;;;;;10254526;28;20250;-91
2023/08/17 21:15:15;;;;;;;7.38;6.78;;;20.30;99.90;;;;;;10255894;28;20667;-91
2023/08/17 21:20:18;;;;;;;5.53;5.03;;;20.20;99.90;;;;;;10274043;28;20257;-91
2023/08/17 21:25:21;;;;;;;6.50;5.82;;;20.20;99.90;;;;;;10306917;28;20323;-91
2023/08/17 21:30:27;;;;;;;5.78;5.10;;;20.30;99.90;;;;;;10276282;28;20245;-91
2023/08/17 21:35:30;;;;;;;8.50;6.20;;;20.30;99.90;;;;;;10278643;28;20233;-91
2023/08/17 21:40:32;;;;;;;5.47;5.07;;;20.30;99.90;;;;;;10262271;28;20382;-91
2023/08/17 21:45:35;;;;;;;5.45;4.82;;;20.40;99.90;;;;;;10261265;28;20673;-91
2023/08/17 21:50:37;;;;;;;6.45;5.20;;;20.50;99.90;;;;;;10274693;28;20237;-91
2023/08/17 21:55:45;;;;;;;6.63;5.00;;;20.50;99.90;;;;;;10278886;28;20229;-91
2023/08/17 22:00:47;;;;;;;5.45;4.93;;;20.60;99.90;;;;;;10278392;28;20303;-91
2023/08/17 22:05:52;;;;;;;7.47;4.63;;;20.60;99.90;;;;;;10277832;28;20237;-91
2023/08/17 22:10:54;;;;;;;4.95;4.55;;;20.60;99.90;;;;;;10275293;28;20238;-91
2023/08/17 22:15:57;;;;;;;5.00;4.60;;;20.70;99.90;;;;;;10279501;28;20245;-90
2023/08/17 22:21:03;;;;;;;4.95;4.10;;;20.60;99.90;;;;;;10271965;28;20302;-90
2023/08/17 22:26:05;;;;;;;6.95;4.72;;;20.60;99.90;;;;;;10275691;28;20257;-90
2023/08/17 22:31:08;;;;;;;4.95;4.13;;;20.60;99.90;;;;;;10280139;28;20237;-90
2023/08/17 22:36:11;;;;;;;12.68;4.45;;;20.60;99.90;;;;;;10284685;28;20252;-90
2023/08/17 22:41:13;;;;;;;8.27;4.57;;;20.60;99.90;;;;;;10285299;28;20269;-90
2023/08/17 22:46:16;;;;;;;5.60;5.07;;;20.60;99.90;;;;;;10284405;28;20286;-90
2023/08/17 22:51:20;;;;;;;4.32;3.88;;;20.60;99.90;;;;;;10267838;28;20775;-90
2023/08/17 22:56:22;;;;;;;6.40;3.80;;;20.60;99.90;;;;;;10273585;28;20245;-90
2023/08/17 23:01:25;;;;;;;10.30;4.50;;;20.50;99.90;;;;;;10281475;28;20266;-90
2023/08/17 23:06:28;;;;;;;5.05;4.43;;;20.40;99.90;;;;;;10282248;28;20233;-89
2023/08/17 23:11:31;;;;;;;4.18;3.70;;;20.50;99.90;;;;;;10283224;28;20271;-89
2023/08/17 23:16:33;;;;;;;4.78;4.35;;;20.60;99.90;;;;;;10270637;28;20718;-91
2023/08/17 23:21:39;;;;;;;6.18;4.45;;;20.50;99.90;;;;;;10283482;28;20269;-89
2023/08/17 23:26:42;;;;;;;5.40;4.05;;;20.60;99.90;;;;;;10299392;28;20283;-90
2023/08/17 23:31:45;;;;;;;4.57;4.18;;;20.70;99.90;;;;;;10280084;28;20612;-90
2023/08/17 23:36:47;;;;;;;6.03;4.10;;;20.70;99.90;;;;;;10253577;28;20678;-89
2023/08/17 23:41:50;;;;;;;3.30;2.92;;;20.60;99.90;;;;;;10280623;28;20265;-89
2023/08/17 23:46:52;;;;;;;3.92;2.72;;;20.60;99.90;;;;;;10282111;28;20245;-90
2023/08/17 23:51:55;;;;;;;3.70;3.38;;;20.50;99.90;;;;;;10284491;28;20233;-89
2023/08/17 23:56:58;;;;;;;5.65;3.92;;;20.40;99.90;;;;;;10269482;28;20626;-90
